sensor_id;sensor_type;location;lat;lon;timestamp;pressure;altitude;pressure_sealevel;temperature;humidity
18201;BME280;9226;47.858;9.594;2023-04-05T00:01:30;95558.50;;;1.12;52.06
18201;BME280;9226;47.858;9.594;2023-04-05T00:03:57;95552.09;;;1.19;51.72
18201;BME280;9226;47.858;9.594;2023-04-05T00:06:23;95555.75;;;1.15;52.65
18201;BME280;9226;47.858;9.594;2023-04-05T00:08:57;95553.94;;;1.17;52.45
18201;BME280;9226;47.858;9.594;2023-04-05T00:11:23;95554.78;;;1.18;52.39
18201;BME280;9226;47.858;9.594;2023-04-05T00:13:49;95559.13;;;1.19;52.63
18201;BME280;9226;47.858;9.594;2023-04-05T00:16:15;95553.75;;;1.22;52.61
18201;BME280;9226;47.858;9.594;2023-04-05T00:18:41;95550.28;;;1.21;52.46
18201;BME280;9226;47.858;9.594;2023-04-05T00:21:14;95545.84;;;1.23;52.36
18201;BME280;9226;47.858;9.594;2023-04-05T00:23:40;95547.91;;;1.15;53.33
18201;BME280;9226;47.858;9.594;2023-04-05T00:26:09;95550.22;;;1.23;52.64
18201;BME280;9226;47.858;9.594;2023-04-05T00:28:35;95538.91;;;1.22;52.82
18201;BME280;9226;47.858;9.594;2023-04-05T00:31:00;95536.16;;;1.25;52.47
18201;BME280;9226;47.858;9.594;2023-04-05T00:33:26;95539.69;;;1.24;52.56
18201;BME280;9226;47.858;9.594;2023-04-05T00:35:51;95544.13;;;1.22;52.82
18201;BME280;9226;47.858;9.594;2023-04-05T00:38:16;95533.03;;;1.17;53.15
18201;BME280;9226;47.858;9.594;2023-04-05T00:40:42;95536.38;;;1.21;53.03
18201;BME280;9226;47.858;9.594;2023-04-05T00:43:07;95531.41;;;1.15;53.55
18201;BME280;9226;47.858;9.594;2023-04-05T00:45:32;95525.47;;;1.11;53.98
18201;BME280;9226;47.858;9.594;2023-04-05T00:47:59;95523.75;;;1.10;53.78
18201;BME280;9226;47.858;9.594;2023-04-05T00:50:25;95523.81;;;1.08;53.88
18201;BME280;9226;47.858;9.594;2023-04-05T00:52:54;95527.25;;;1.09;53.64
18201;BME280;9226;47.858;9.594;2023-04-05T00:55:20;95523.31;;;1.00;54.47
18201;BME280;9226;47.858;9.594;2023-04-05T00:57:46;95525.00;;;1.01;53.92
18201;BME280;9226;47.858;9.594;2023-04-05T01:00:14;95517.44;;;0.95;53.03
18201;BME280;9226;47.858;9.594;2023-04-05T01:02:45;95512.66;;;0.84;53.17
18201;BME280;9226;47.858;9.594;2023-04-05T01:08:09;95505.22;;;0.96;53.25
18201;BME280;9226;47.858;9.594;2023-04-05T01:10:38;95497.31;;;0.97;52.23
18201;BME280;9226;47.858;9.594;2023-04-05T01:13:06;95493.78;;;0.98;52.41
18201;BME280;9226;47.858;9.594;2023-04-05T01:15:33;95496.47;;;0.97;52.42
18201;BME280;9226;47.858;9.594;2023-04-05T01:17:58;95486.16;;;0.94;52.72
18201;BME280;9226;47.858;9.594;2023-04-05T01:20:27;95482.59;;;0.95;52.98
18201;BME280;9226;47.858;9.594;2023-04-05T01:23:17;95485.28;;;0.93;53.77
18201;BME280;9226;47.858;9.594;2023-04-05T01:28:48;95481.56;;;0.78;54.71
18201;BME280;9226;47.858;9.594;2023-04-05T01:31:45;95479.72;;;0.80;54.55
18201;BME280;9226;47.858;9.594;2023-04-05T01:34:33;95478.81;;;0.81;54.33
18201;BME280;9226;47.858;9.594;2023-04-05T01:37:07;95482.66;;;0.72;55.00
18201;BME280;9226;47.858;9.594;2023-04-05T01:39:35;95479.97;;;0.74;54.57
18201;BME280;9226;47.858;9.594;2023-04-05T01:42:02;95481.88;;;0.70;55.29
18201;BME280;9226;47.858;9.594;2023-04-05T01:44:28;95479.25;;;0.70;54.91
18201;BME280;9226;47.858;9.594;2023-04-05T01:46:53;95476.84;;;0.66;55.46
18201;BME280;9226;47.858;9.594;2023-04-05T01:49:19;95475.34;;;0.60;55.40
18201;BME280;9226;47.858;9.594;2023-04-05T01:51:45;95479.72;;;0.60;55.11
18201;BME280;9226;47.858;9.594;2023-04-05T01:54:10;95477.22;;;0.57;55.50
18201;BME280;9226;47.858;9.594;2023-04-05T01:56:36;95472.25;;;0.50;55.68
18201;BME280;9226;47.858;9.594;2023-04-05T01:59:01;95475.06;;;0.46;55.87
18201;BME280;9226;47.858;9.594;2023-04-05T02:01:26;95475.78;;;0.49;55.57
18201;BME280;9226;47.858;9.594;2023-04-05T02:03:52;95477.59;;;0.47;55.39
18201;BME280;9226;47.858;9.594;2023-04-05T02:06:17;95472.44;;;0.46;55.81
18201;BME280;9226;47.858;9.594;2023-04-05T02:08:42;95467.56;;;0.38;55.83
18201;BME280;9226;47.858;9.594;2023-04-05T02:11:08;95458.50;;;0.25;56.89
18201;BME280;9226;47.858;9.594;2023-04-05T02:13:33;95455.97;;;0.23;56.69
18201;BME280;9226;47.858;9.594;2023-04-05T02:15:59;95462.59;;;0.10;57.36
18201;BME280;9226;47.858;9.594;2023-04-05T02:18:24;95464.72;;;0.00;57.84
18201;BME280;9226;47.858;9.594;2023-04-05T02:21:05;95452.47;;;0.02;57.45
18201;BME280;9226;47.858;9.594;2023-04-05T02:23:32;95458.69;;;-0.02;57.95
18201;BME280;9226;47.858;9.594;2023-04-05T02:25:58;95456.69;;;0.05;57.67
18201;BME280;9226;47.858;9.594;2023-04-05T02:28:23;95455.78;;;0.06;57.43
18201;BME280;9226;47.858;9.594;2023-04-05T02:30:49;95446.31;;;0.03;57.56
18201;BME280;9226;47.858;9.594;2023-04-05T02:33:14;95447.13;;;0.05;57.41
18201;BME280;9226;47.858;9.594;2023-04-05T02:35:40;95447.31;;;0.01;57.81
18201;BME280;9226;47.858;9.594;2023-04-05T02:38:06;95448.50;;;-0.08;58.45
18201;BME280;9226;47.858;9.594;2023-04-05T02:40:31;95446.78;;;-0.08;57.97
18201;BME280;9226;47.858;9.594;2023-04-05T02:42:57;95444.88;;;-0.04;58.03
18201;BME280;9226;47.858;9.594;2023-04-05T02:45:22;95433.78;;;-0.09;58.48
18201;BME280;9226;47.858;9.594;2023-04-05T02:47:48;95441.66;;;-0.11;58.55
18201;BME280;9226;47.858;9.594;2023-04-05T02:50:14;95435.47;;;-0.08;58.28
18201;BME280;9226;47.858;9.594;2023-04-05T02:52:44;95436.34;;;-0.08;58.03
18201;BME280;9226;47.858;9.594;2023-04-05T02:55:09;95442.69;;;-0.15;58.26
18201;BME280;9226;47.858;9.594;2023-04-05T02:57:35;95432.13;;;-0.12;57.92
18201;BME280;9226;47.858;9.594;2023-04-05T03:00:00;95430.50;;;-0.14;57.97
18201;BME280;9226;47.858;9.594;2023-04-05T03:02:26;95433.28;;;-0.19;58.44
18201;BME280;9226;47.858;9.594;2023-04-05T03:04:52;95438.81;;;-0.27;58.67
18201;BME280;9226;47.858;9.594;2023-04-05T03:07:17;95437.00;;;-0.25;58.29
18201;BME280;9226;47.858;9.594;2023-04-05T03:09:44;95430.06;;;-0.26;58.46
18201;BME280;9226;47.858;9.594;2023-04-05T03:12:10;95424.00;;;-0.26;58.71
18201;BME280;9226;47.858;9.594;2023-04-05T03:14:38;95430.81;;;-0.22;58.22
18201;BME280;9226;47.858;9.594;2023-04-05T03:17:04;95431.06;;;-0.28;58.54
18201;BME280;9226;47.858;9.594;2023-04-05T03:19:30;95432.78;;;-0.29;58.67
18201;BME280;9226;47.858;9.594;2023-04-05T03:21:56;95425.09;;;-0.32;58.82
18201;BME280;9226;47.858;9.594;2023-04-05T03:24:22;95423.28;;;-0.30;58.38
18201;BME280;9226;47.858;9.594;2023-04-05T03:26:48;95416.59;;;-0.37;58.80
18201;BME280;9226;47.858;9.594;2023-04-05T03:29:14;95411.56;;;-0.42;59.06
18201;BME280;9226;47.858;9.594;2023-04-05T03:31:40;95417.75;;;-0.44;58.93
18201;BME280;9226;47.858;9.594;2023-04-05T03:34:05;95415.09;;;-0.43;58.64
18201;BME280;9226;47.858;9.594;2023-04-05T03:36:30;95410.19;;;-0.50;59.21
18201;BME280;9226;47.858;9.594;2023-04-05T03:39:09;95403.25;;;-0.51;58.99
18201;BME280;9226;47.858;9.594;2023-04-05T03:41:36;95401.84;;;-0.60;59.45
18201;BME280;9226;47.858;9.594;2023-04-05T03:44:01;95405.13;;;-0.55;59.13
18201;BME280;9226;47.858;9.594;2023-04-05T03:46:27;95407.09;;;-0.62;59.44
18201;BME280;9226;47.858;9.594;2023-04-05T03:48:52;95402.75;;;-0.61;59.33
18201;BME280;9226;47.858;9.594;2023-04-05T03:51:18;95413.19;;;-0.61;58.99
18201;BME280;9226;47.858;9.594;2023-04-05T03:53:44;95406.50;;;-0.68;59.14
18201;BME280;9226;47.858;9.594;2023-04-05T03:56:10;95409.16;;;-0.70;59.00
18201;BME280;9226;47.858;9.594;2023-04-05T03:58:36;95402.50;;;-0.77;59.58
18201;BME280;9226;47.858;9.594;2023-04-05T04:01:01;95402.50;;;-0.77;59.43
18201;BME280;9226;47.858;9.594;2023-04-05T04:03:27;95394.78;;;-0.80;59.92
18201;BME280;9226;47.858;9.594;2023-04-05T04:05:53;95393.16;;;-0.83;59.98
18201;BME280;9226;47.858;9.594;2023-04-05T04:08:19;95397.63;;;-0.86;59.72
18201;BME280;9226;47.858;9.594;2023-04-05T04:10:45;95402.84;;;-0.86;59.91
18201;BME280;9226;47.858;9.594;2023-04-05T04:13:10;95407.25;;;-0.88;59.92
18201;BME280;9226;47.858;9.594;2023-04-05T04:15:36;95401.22;;;-0.91;60.31
18201;BME280;9226;47.858;9.594;2023-04-05T04:18:01;95397.84;;;-0.93;60.17
18201;BME280;9226;47.858;9.594;2023-04-05T04:20:26;95402.88;;;-0.88;59.53
18201;BME280;9226;47.858;9.594;2023-04-05T04:22:52;95405.44;;;-0.86;59.67
18201;BME280;9226;47.858;9.594;2023-04-05T04:25:18;95403.78;;;-0.89;59.52
18201;BME280;9226;47.858;9.594;2023-04-05T04:27:44;95393.59;;;-0.95;60.20
18201;BME280;9226;47.858;9.594;2023-04-05T04:30:14;95401.56;;;-1.00;60.11
18201;BME280;9226;47.858;9.594;2023-04-05T04:32:41;95403.28;;;-0.99;60.17
18201;BME280;9226;47.858;9.594;2023-04-05T04:35:16;95405.31;;;-1.07;60.63
18201;BME280;9226;47.858;9.594;2023-04-05T04:37:46;95405.44;;;-1.10;60.52
18201;BME280;9226;47.858;9.594;2023-04-05T04:40:15;95404.81;;;-1.17;60.77
18201;BME280;9226;47.858;9.594;2023-04-05T04:42:46;95403.66;;;-1.10;60.28
18201;BME280;9226;47.858;9.594;2023-04-05T04:45:15;95415.16;;;-1.15;60.78
18201;BME280;9226;47.858;9.594;2023-04-05T04:47:43;95409.84;;;-1.12;60.54
18201;BME280;9226;47.858;9.594;2023-04-05T04:50:09;95414.25;;;-1.14;60.49
18201;BME280;9226;47.858;9.594;2023-04-05T04:52:36;95403.72;;;-1.11;60.39
18201;BME280;9226;47.858;9.594;2023-04-05T04:55:02;95403.72;;;-1.11;60.46
18201;BME280;9226;47.858;9.594;2023-04-05T04:57:27;95407.03;;;-1.06;60.35
18201;BME280;9226;47.858;9.594;2023-04-05T04:59:53;95400.06;;;-1.05;60.26
18201;BME280;9226;47.858;9.594;2023-04-05T05:02:22;95406.09;;;-1.05;60.39
18201;BME280;9226;47.858;9.594;2023-04-05T05:04:48;95404.28;;;-1.03;60.30
18201;BME280;9226;47.858;9.594;2023-04-05T05:07:13;95413.03;;;-1.04;60.58
18201;BME280;9226;47.858;9.594;2023-04-05T05:09:38;95408.59;;;-1.02;60.64
18201;BME280;9226;47.858;9.594;2023-04-05T05:12:04;95412.63;;;-0.93;60.46
18201;BME280;9226;47.858;9.594;2023-04-05T05:14:29;95410.59;;;-0.85;60.52
18201;BME280;9226;47.858;9.594;2023-04-05T05:16:55;95405.38;;;-0.61;60.24
18201;BME280;9226;47.858;9.594;2023-04-05T05:19:23;95412.97;;;-0.33;60.08
18201;BME280;9226;47.858;9.594;2023-04-05T05:21:48;95406.22;;;0.06;58.81
18201;BME280;9226;47.858;9.594;2023-04-05T05:24:14;95407.78;;;0.52;57.70
18201;BME280;9226;47.858;9.594;2023-04-05T05:26:40;95404.50;;;0.88;56.95
18201;BME280;9226;47.858;9.594;2023-04-05T05:29:05;95403.84;;;1.42;55.54
18201;BME280;9226;47.858;9.594;2023-04-05T05:31:30;95412.59;;;1.98;54.34
18201;BME280;9226;47.858;9.594;2023-04-05T05:33:57;95408.63;;;2.61;53.20
18201;BME280;9226;47.858;9.594;2023-04-05T05:36:23;95406.94;;;3.28;51.18
18201;BME280;9226;47.858;9.594;2023-04-05T05:38:50;95395.72;;;4.06;49.79
18201;BME280;9226;47.858;9.594;2023-04-05T05:41:16;95391.16;;;4.56;47.58
18201;BME280;9226;47.858;9.594;2023-04-05T05:43:42;95400.28;;;5.38;46.46
18201;BME280;9226;47.858;9.594;2023-04-05T05:46:08;95397.75;;;5.92;45.04
18201;BME280;9226;47.858;9.594;2023-04-05T05:48:33;95402.16;;;6.61;43.89
18201;BME280;9226;47.858;9.594;2023-04-05T05:50:58;95397.38;;;7.32;43.26
18201;BME280;9226;47.858;9.594;2023-04-05T05:53:26;95396.53;;;8.07;41.81
18201;BME280;9226;47.858;9.594;2023-04-05T05:55:51;95392.47;;;8.51;39.79
18201;BME280;9226;47.858;9.594;2023-04-05T05:58:16;95403.16;;;9.20;38.82
18201;BME280;9226;47.858;9.594;2023-04-05T06:00:42;95398.28;;;9.84;37.96
18201;BME280;9226;47.858;9.594;2023-04-05T06:03:08;95403.38;;;10.42;37.38
18201;BME280;9226;47.858;9.594;2023-04-05T06:05:34;95403.16;;;10.98;36.99
18201;BME280;9226;47.858;9.594;2023-04-05T06:07:59;95396.25;;;11.28;36.51
18201;BME280;9226;47.858;9.594;2023-04-05T06:10:25;95403.84;;;11.85;35.17
18201;BME280;9226;47.858;9.594;2023-04-05T06:12:50;95406.28;;;12.48;35.69
18201;BME280;9226;47.858;9.594;2023-04-05T06:15:15;95402.13;;;13.04;34.08
18201;BME280;9226;47.858;9.594;2023-04-05T06:17:41;95397.88;;;13.31;32.57
18201;BME280;9226;47.858;9.594;2023-04-05T06:20:09;95400.69;;;13.59;32.07
18201;BME280;9226;47.858;9.594;2023-04-05T06:22:39;95395.47;;;13.94;30.61
18201;BME280;9226;47.858;9.594;2023-04-05T06:25:06;95395.47;;;13.94;30.84
18201;BME280;9226;47.858;9.594;2023-04-05T06:27:31;95401.47;;;13.69;30.29
18201;BME280;9226;47.858;9.594;2023-04-05T06:30:00;95402.19;;;14.36;29.87
18201;BME280;9226;47.858;9.594;2023-04-05T06:32:25;95399.53;;;15.00;29.80
18201;BME280;9226;47.858;9.594;2023-04-05T06:34:51;95399.69;;;15.87;30.40
18201;BME280;9226;47.858;9.594;2023-04-05T06:37:17;95394.84;;;15.90;28.65
18201;BME280;9226;47.858;9.594;2023-04-05T06:39:43;95396.66;;;15.82;28.29
18201;BME280;9226;47.858;9.594;2023-04-05T06:42:08;95397.66;;;16.58;27.86
18201;BME280;9226;47.858;9.594;2023-04-05T06:44:33;95392.44;;;16.99;27.48
18201;BME280;9226;47.858;9.594;2023-04-05T06:46:59;95393.97;;;17.43;27.11
18201;BME280;9226;47.858;9.594;2023-04-05T06:49:24;95397.25;;;17.69;25.66
18201;BME280;9226;47.858;9.594;2023-04-05T06:51:49;95389.59;;;18.31;25.09
18201;BME280;9226;47.858;9.594;2023-04-05T06:54:15;95401.56;;;18.12;25.22
18201;BME280;9226;47.858;9.594;2023-04-05T06:56:40;95396.06;;;18.84;24.94
18201;BME280;9226;47.858;9.594;2023-04-05T06:59:06;95393.28;;;19.24;24.31
18201;BME280;9226;47.858;9.594;2023-04-05T07:01:31;95392.94;;;19.88;24.77
18201;BME280;9226;47.858;9.594;2023-04-05T07:03:57;95397.13;;;20.20;24.37
18201;BME280;9226;47.858;9.594;2023-04-05T07:06:22;95395.53;;;19.96;22.70
18201;BME280;9226;47.858;9.594;2023-04-05T07:08:48;95404.91;;;19.62;23.31
18201;BME280;9226;47.858;9.594;2023-04-05T07:11:13;95397.16;;;20.87;23.19
18201;BME280;9226;47.858;9.594;2023-04-05T07:13:39;95389.38;;;21.35;22.15
18201;BME280;9226;47.858;9.594;2023-04-05T07:16:05;95390.53;;;21.69;22.07
18201;BME280;9226;47.858;9.594;2023-04-05T07:18:31;95398.28;;;22.07;22.06
18201;BME280;9226;47.858;9.594;2023-04-05T07:20:58;95395.25;;;21.60;21.58
18201;BME280;9226;47.858;9.594;2023-04-05T07:23:28;95401.63;;;22.79;21.77
18201;BME280;9226;47.858;9.594;2023-04-05T07:25:54;95398.66;;;22.67;20.91
18201;BME280;9226;47.858;9.594;2023-04-05T07:28:19;95399.44;;;22.61;21.01
18201;BME280;9226;47.858;9.594;2023-04-05T07:30:45;95395.22;;;21.39;21.24
18201;BME280;9226;47.858;9.594;2023-04-05T07:33:10;95401.66;;;22.09;20.24
18201;BME280;9226;47.858;9.594;2023-04-05T07:35:36;95395.13;;;22.67;20.59
18201;BME280;9226;47.858;9.594;2023-04-05T07:38:02;95405.84;;;23.02;20.62
18201;BME280;9226;47.858;9.594;2023-04-05T07:40:27;95396.84;;;23.70;19.92
18201;BME280;9226;47.858;9.594;2023-04-05T07:42:53;95408.13;;;24.00;19.86
18201;BME280;9226;47.858;9.594;2023-04-05T07:45:18;95397.09;;;23.88;19.64
18201;BME280;9226;47.858;9.594;2023-04-05T07:47:44;95402.25;;;23.76;18.67
18201;BME280;9226;47.858;9.594;2023-04-05T07:50:10;95398.75;;;23.96;19.17
18201;BME280;9226;47.858;9.594;2023-04-05T07:52:39;95406.41;;;23.65;18.48
18201;BME280;9226;47.858;9.594;2023-04-05T07:55:05;95407.63;;;24.56;19.33
18201;BME280;9226;47.858;9.594;2023-04-05T07:57:31;95412.91;;;24.18;17.77
18201;BME280;9226;47.858;9.594;2023-04-05T07:59:56;95402.88;;;23.58;17.89
18201;BME280;9226;47.858;9.594;2023-04-05T08:02:22;95411.00;;;23.58;18.42
18201;BME280;9226;47.858;9.594;2023-04-05T08:04:48;95405.59;;;24.05;17.93
18201;BME280;9226;47.858;9.594;2023-04-05T08:07:14;95412.00;;;23.30;17.34
18201;BME280;9226;47.858;9.594;2023-04-05T08:09:40;95405.94;;;23.15;18.35
18201;BME280;9226;47.858;9.594;2023-04-05T08:12:05;95414.22;;;22.23;17.78
18201;BME280;9226;47.858;9.594;2023-04-05T08:14:31;95394.41;;;22.93;18.24
18201;BME280;9226;47.858;9.594;2023-04-05T08:16:56;95407.47;;;22.13;18.08
18201;BME280;9226;47.858;9.594;2023-04-05T08:19:21;95390.47;;;22.19;18.98
18201;BME280;9226;47.858;9.594;2023-04-05T08:21:47;95389.75;;;21.10;18.98
18201;BME280;9226;47.858;9.594;2023-04-05T08:24:12;95396.44;;;20.63;18.71
18201;BME280;9226;47.858;9.594;2023-04-05T08:26:37;95401.31;;;20.38;19.17
18201;BME280;9226;47.858;9.594;2023-04-05T08:29:03;95403.53;;;18.66;19.63
18201;BME280;9226;47.858;9.594;2023-04-05T08:31:29;95402.00;;;18.32;20.38
18201;BME280;9226;47.858;9.594;2023-04-05T08:33:54;95397.47;;;19.03;19.74
18201;BME280;9226;47.858;9.594;2023-04-05T08:36:20;95397.44;;;19.73;19.37
18201;BME280;9226;47.858;9.594;2023-04-05T08:38:45;95389.69;;;18.77;19.76
18201;BME280;9226;47.858;9.594;2023-04-05T08:41:18;95399.91;;;19.13;20.14
18201;BME280;9226;47.858;9.594;2023-04-05T08:46:17;95399.13;;;17.20;20.68
18201;BME280;9226;47.858;9.594;2023-04-05T08:48:43;95405.09;;;18.20;20.78
18201;BME280;9226;47.858;9.594;2023-04-05T08:51:09;95395.78;;;17.59;20.93
18201;BME280;9226;47.858;9.594;2023-04-05T08:53:34;95397.56;;;18.55;20.30
18201;BME280;9226;47.858;9.594;2023-04-05T08:56:01;95395.94;;;18.38;20.47
18201;BME280;9226;47.858;9.594;2023-04-05T08:58:28;95396.16;;;18.28;20.50
18201;BME280;9226;47.858;9.594;2023-04-05T09:00:56;95391.75;;;18.35;20.42
18201;BME280;9226;47.858;9.594;2023-04-05T09:03:35;95392.31;;;18.62;20.05
18201;BME280;9226;47.858;9.594;2023-04-05T09:06:04;95396.19;;;18.91;20.04
18201;BME280;9226;47.858;9.594;2023-04-05T09:08:34;95400.19;;;19.26;20.04
18201;BME280;9226;47.858;9.594;2023-04-05T09:11:00;95406.44;;;18.16;20.24
18201;BME280;9226;47.858;9.594;2023-04-05T09:13:25;95408.84;;;17.04;20.80
18201;BME280;9226;47.858;9.594;2023-04-05T09:15:51;95401.31;;;17.57;20.78
18201;BME280;9226;47.858;9.594;2023-04-05T09:18:16;95394.72;;;18.09;20.18
18201;BME280;9226;47.858;9.594;2023-04-05T09:20:42;95399.75;;;18.83;19.93
18201;BME280;9226;47.858;9.594;2023-04-05T09:23:07;95407.41;;;18.23;20.40
18201;BME280;9226;47.858;9.594;2023-04-05T09:25:37;95411.84;;;17.75;20.71
18201;BME280;9226;47.858;9.594;2023-04-05T09:28:07;95408.16;;;18.88;20.25
18201;BME280;9226;47.858;9.594;2023-04-05T09:30:33;95402.97;;;19.94;19.57
18201;BME280;9226;47.858;9.594;2023-04-05T09:33:01;95406.13;;;20.13;18.96
18201;BME280;9226;47.858;9.594;2023-04-05T09:35:29;95397.28;;;20.64;18.64
18201;BME280;9226;47.858;9.594;2023-04-05T09:37:57;95412.00;;;19.17;18.57
18201;BME280;9226;47.858;9.594;2023-04-05T09:40:23;95406.78;;;19.62;19.34
18201;BME280;9226;47.858;9.594;2023-04-05T09:42:48;95408.28;;;20.32;19.43
18201;BME280;9226;47.858;9.594;2023-04-05T09:45:15;95405.06;;;20.88;18.59
18201;BME280;9226;47.858;9.594;2023-04-05T09:47:52;95406.66;;;21.19;18.12
18201;BME280;9226;47.858;9.594;2023-04-05T09:50:19;95417.00;;;19.90;18.04
18201;BME280;9226;47.858;9.594;2023-04-05T09:52:44;95418.31;;;19.47;18.38
18201;BME280;9226;47.858;9.594;2023-04-05T09:55:11;95420.13;;;19.32;19.26
18201;BME280;9226;47.858;9.594;2023-04-05T09:57:38;95412.34;;;18.51;19.27
18201;BME280;9226;47.858;9.594;2023-04-05T10:00:05;95416.50;;;18.14;20.00
18201;BME280;9226;47.858;9.594;2023-04-05T10:02:40;95410.97;;;19.41;19.94
18201;BME280;9226;47.858;9.594;2023-04-05T10:05:06;95423.56;;;18.55;19.39
18201;BME280;9226;47.858;9.594;2023-04-05T10:07:32;95419.16;;;18.22;20.23
18201;BME280;9226;47.858;9.594;2023-04-05T10:09:58;95411.06;;;18.70;19.60
18201;BME280;9226;47.858;9.594;2023-04-05T10:12:26;95413.84;;;18.06;19.64
18201;BME280;9226;47.858;9.594;2023-04-05T10:14:54;95413.47;;;18.17;19.88
18201;BME280;9226;47.858;9.594;2023-04-05T10:20:24;95407.78;;;18.12;20.32
18201;BME280;9226;47.858;9.594;2023-04-05T10:22:58;95411.03;;;17.58;19.90
18201;BME280;9226;47.858;9.594;2023-04-05T10:28:11;95404.84;;;19.32;20.26
18201;BME280;9226;47.858;9.594;2023-04-05T10:30:43;95402.06;;;19.17;19.28
18201;BME280;9226;47.858;9.594;2023-04-05T10:33:18;95410.38;;;17.48;19.64
18201;BME280;9226;47.858;9.594;2023-04-05T10:38:36;95412.66;;;16.42;20.16
18201;BME280;9226;47.858;9.594;2023-04-05T10:41:11;95398.94;;;16.88;20.59
18201;BME280;9226;47.858;9.594;2023-04-05T10:43:39;95421.19;;;16.03;21.19
18201;BME280;9226;47.858;9.594;2023-04-05T10:46:06;95412.50;;;15.57;21.17
18201;BME280;9226;47.858;9.594;2023-04-05T10:49:03;95411.22;;;15.43;20.77
18201;BME280;9226;47.858;9.594;2023-04-05T10:51:33;95390.59;;;16.49;21.46
18201;BME280;9226;47.858;9.594;2023-04-05T10:54:00;95398.97;;;16.45;21.36
18201;BME280;9226;47.858;9.594;2023-04-05T10:56:26;95394.78;;;17.18;21.50
18201;BME280;9226;47.858;9.594;2023-04-05T10:58:52;95397.78;;;17.07;20.61
18201;BME280;9226;47.858;9.594;2023-04-05T11:01:20;95411.69;;;17.03;20.11
18201;BME280;9226;47.858;9.594;2023-04-05T11:03:48;95399.97;;;17.61;20.20
18201;BME280;9226;47.858;9.594;2023-04-05T11:06:30;95400.94;;;17.77;19.61
18201;BME280;9226;47.858;9.594;2023-04-05T11:08:59;95400.19;;;18.63;20.13
18201;BME280;9226;47.858;9.594;2023-04-05T11:11:25;95393.09;;;18.39;19.99
18201;BME280;9226;47.858;9.594;2023-04-05T11:13:52;95402.97;;;17.83;18.96
18201;BME280;9226;47.858;9.594;2023-04-05T11:16:18;95395.47;;;17.21;18.86
18201;BME280;9226;47.858;9.594;2023-04-05T11:18:45;95389.41;;;17.02;19.83
18201;BME280;9226;47.858;9.594;2023-04-05T11:21:19;95390.94;;;17.13;19.96
18201;BME280;9226;47.858;9.594;2023-04-05T11:29:09;95390.69;;;15.70;20.96
18201;BME280;9226;47.858;9.594;2023-04-05T11:31:34;95384.44;;;16.14;20.53
18201;BME280;9226;47.858;9.594;2023-04-05T11:34:04;95374.88;;;16.11;21.36
18201;BME280;9226;47.858;9.594;2023-04-05T11:41:59;95367.47;;;17.31;20.10
18201;BME280;9226;47.858;9.594;2023-04-05T11:44:48;95369.81;;;17.02;20.40
18201;BME280;9226;47.858;9.594;2023-04-05T11:47:17;95360.34;;;16.64;20.67
18201;BME280;9226;47.858;9.594;2023-04-05T11:49:49;95363.47;;;15.74;20.54
18201;BME280;9226;47.858;9.594;2023-04-05T11:52:17;95368.97;;;15.91;20.68
18201;BME280;9226;47.858;9.594;2023-04-05T11:54:44;95370.47;;;15.94;21.19
18201;BME280;9226;47.858;9.594;2023-04-05T11:57:17;95362.22;;;15.79;20.75
18201;BME280;9226;47.858;9.594;2023-04-05T11:59:43;95350.13;;;16.09;20.80
18201;BME280;9226;47.858;9.594;2023-04-05T12:02:08;95349.06;;;15.67;20.29
18201;BME280;9226;47.858;9.594;2023-04-05T12:04:35;95353.53;;;15.85;20.44
18201;BME280;9226;47.858;9.594;2023-04-05T12:07:17;95346.72;;;15.64;20.41
18201;BME280;9226;47.858;9.594;2023-04-05T12:12:42;95352.28;;;14.82;22.89
18201;BME280;9226;47.858;9.594;2023-04-05T12:15:11;95346.81;;;14.56;24.06
18201;BME280;9226;47.858;9.594;2023-04-05T12:17:46;95358.72;;;13.98;22.82
18201;BME280;9226;47.858;9.594;2023-04-05T12:20:16;95349.19;;;14.69;22.82
18201;BME280;9226;47.858;9.594;2023-04-05T12:22:44;95337.25;;;14.99;23.23
18201;BME280;9226;47.858;9.594;2023-04-05T12:25:10;95340.19;;;15.32;23.16
18201;BME280;9226;47.858;9.594;2023-04-05T12:27:37;95341.16;;;15.31;22.95
18201;BME280;9226;47.858;9.594;2023-04-05T12:30:17;95337.47;;;15.06;22.45
18201;BME280;9226;47.858;9.594;2023-04-05T12:32:53;95338.06;;;14.00;22.75
18201;BME280;9226;47.858;9.594;2023-04-05T12:35:23;95332.59;;;12.97;23.65
18201;BME280;9226;47.858;9.594;2023-04-05T12:37:52;95333.41;;;13.08;24.47
18201;BME280;9226;47.858;9.594;2023-04-05T12:40:21;95330.03;;;13.25;24.75
18201;BME280;9226;47.858;9.594;2023-04-05T12:42:47;95340.13;;;13.21;25.26
18201;BME280;9226;47.858;9.594;2023-04-05T12:45:13;95332.00;;;13.13;24.82
18201;BME280;9226;47.858;9.594;2023-04-05T12:47:58;95335.97;;;12.41;24.45
18201;BME280;9226;47.858;9.594;2023-04-05T12:50:32;95331.22;;;12.54;24.91
18201;BME280;9226;47.858;9.594;2023-04-05T12:53:00;95333.75;;;12.56;25.06
18201;BME280;9226;47.858;9.594;2023-04-05T12:55:27;95341.50;;;11.99;25.19
18201;BME280;9226;47.858;9.594;2023-04-05T12:57:59;95324.00;;;11.96;25.59
18201;BME280;9226;47.858;9.594;2023-04-05T13:00:26;95317.06;;;11.84;25.64
18201;BME280;9226;47.858;9.594;2023-04-05T13:02:54;95323.13;;;11.55;25.94
18201;BME280;9226;47.858;9.594;2023-04-05T13:05:21;95316.06;;;11.34;26.74
18201;BME280;9226;47.858;9.594;2023-04-05T13:07:47;95333.09;;;10.68;26.93
18201;BME280;9226;47.858;9.594;2023-04-05T13:10:12;95317.00;;;11.02;26.55
18201;BME280;9226;47.858;9.594;2023-04-05T13:12:38;95320.38;;;11.04;27.12
18201;BME280;9226;47.858;9.594;2023-04-05T13:15:04;95316.84;;;10.83;28.00
18201;BME280;9226;47.858;9.594;2023-04-05T13:17:30;95314.28;;;10.72;27.48
18201;BME280;9226;47.858;9.594;2023-04-05T13:19:55;95315.47;;;10.46;27.83
18201;BME280;9226;47.858;9.594;2023-04-05T13:22:21;95306.00;;;10.86;26.77
18201;BME280;9226;47.858;9.594;2023-04-05T13:24:46;95305.84;;;10.88;27.01
18201;BME280;9226;47.858;9.594;2023-04-05T13:27:12;95306.69;;;11.09;26.86
18201;BME280;9226;47.858;9.594;2023-04-05T13:29:37;95296.81;;;11.21;27.00
18201;BME280;9226;47.858;9.594;2023-04-05T13:32:03;95306.63;;;10.57;27.17
18201;BME280;9226;47.858;9.594;2023-04-05T13:34:28;95296.50;;;10.83;26.96
18201;BME280;9226;47.858;9.594;2023-04-05T13:36:53;95300.69;;;10.86;27.85
18201;BME280;9226;47.858;9.594;2023-04-05T13:39:19;95290.28;;;10.94;28.18
18201;BME280;9226;47.858;9.594;2023-04-05T13:41:44;95289.53;;;10.92;28.85
18201;BME280;9226;47.858;9.594;2023-04-05T13:44:09;95281.50;;;11.03;27.70